sensor_id;sensor_type;location;lat;lon;timestamp;pressure;altitude;pressure_sealevel;temperature;humidity
33161;BME280;19522;45.656;11.302;2023-02-18T00:02:04;99566.22;;;6.72;82.19
33161;BME280;19522;45.656;11.302;2023-02-18T00:04:30;99576.47;;;6.78;82.59
33161;BME280;19522;45.656;11.302;2023-02-18T00:06:56;99564.06;;;6.66;82.65
33161;BME280;19522;45.656;11.302;2023-02-18T00:09:22;99582.06;;;6.55;84.14
33161;BME280;19522;45.656;11.302;2023-02-18T00:11:48;99581.88;;;6.26;85.72
33161;BME280;19522;45.656;11.302;2023-02-18T00:14:14;99550.56;;;5.92;87.76
33161;BME280;19522;45.656;11.302;2023-02-18T00:16:41;99580.28;;;6.14;87.59
33161;BME280;19522;45.656;11.302;2023-02-18T00:19:11;99586.69;;;6.22;88.03
33161;BME280;19522;45.656;11.302;2023-02-18T00:21:36;99574.94;;;6.23;87.54
33161;BME280;19522;45.656;11.302;2023-02-18T00:24:04;99582.38;;;6.31;86.81
33161;BME280;19522;45.656;11.302;2023-02-18T00:26:29;99586.97;;;6.41;86.60
33161;BME280;19522;45.656;11.302;2023-02-18T00:28:55;99549.59;;;6.36;86.36
33161;BME280;19522;45.656;11.302;2023-02-18T00:31:23;99571.78;;;6.49;85.99
33161;BME280;19522;45.656;11.302;2023-02-18T00:33:49;99552.72;;;6.41;86.03
33161;BME280;19522;45.656;11.302;2023-02-18T00:36:16;99564.16;;;6.54;86.29
33161;BME280;19522;45.656;11.302;2023-02-18T00:38:46;99570.19;;;6.68;85.50
33161;BME280;19522;45.656;11.302;2023-02-18T00:41:12;99551.81;;;6.62;84.99
33161;BME280;19522;45.656;11.302;2023-02-18T00:43:38;99565.06;;;6.75;84.82
33161;BME280;19522;45.656;11.302;2023-02-18T00:46:03;99571.34;;;6.75;84.52
33161;BME280;19522;45.656;11.302;2023-02-18T00:48:29;99535.13;;;6.37;85.18
33161;BME280;19522;45.656;11.302;2023-02-18T00:50:55;99561.91;;;6.60;85.82
33161;BME280;19522;45.656;11.302;2023-02-18T00:53:20;99550.00;;;6.72;84.19
33161;BME280;19522;45.656;11.302;2023-02-18T00:55:47;99553.47;;;6.84;83.61
33161;BME280;19522;45.656;11.302;2023-02-18T00:58:13;99559.00;;;6.82;83.72
33161;BME280;19522;45.656;11.302;2023-02-18T01:00:40;99558.03;;;6.93;83.49
33161;BME280;19522;45.656;11.302;2023-02-18T01:03:06;99553.94;;;6.99;82.83
33161;BME280;19522;45.656;11.302;2023-02-18T01:05:35;99570.59;;;7.14;81.91
33161;BME280;19522;45.656;11.302;2023-02-18T01:08:01;99568.41;;;6.88;83.58
33161;BME280;19522;45.656;11.302;2023-02-18T01:10:27;99562.94;;;7.29;81.79
33161;BME280;19522;45.656;11.302;2023-02-18T01:12:53;99558.53;;;7.28;81.52
33161;BME280;19522;45.656;11.302;2023-02-18T01:15:19;99552.38;;;6.96;82.68
33161;BME280;19522;45.656;11.302;2023-02-18T01:17:44;99534.81;;;6.71;83.66
33161;BME280;19522;45.656;11.302;2023-02-18T01:20:11;99555.41;;;6.72;84.57
33161;BME280;19522;45.656;11.302;2023-02-18T01:22:37;99551.72;;;6.73;84.75
33161;BME280;19522;45.656;11.302;2023-02-18T01:25:04;99544.53;;;6.83;83.84
33161;BME280;19522;45.656;11.302;2023-02-18T01:27:30;99548.66;;;6.88;83.72
33161;BME280;19522;45.656;11.302;2023-02-18T01:29:56;99543.13;;;6.89;83.55
33161;BME280;19522;45.656;11.302;2023-02-18T01:32:21;99532.28;;;6.79;83.87
33161;BME280;19522;45.656;11.302;2023-02-18T01:34:47;99538.56;;;6.90;83.88
33161;BME280;19522;45.656;11.302;2023-02-18T01:37:13;99544.13;;;6.98;83.33
33161;BME280;19522;45.656;11.302;2023-02-18T01:39:39;99535.91;;;7.09;82.43
33161;BME280;19522;45.656;11.302;2023-02-18T01:42:05;99518.69;;;7.10;82.14
33161;BME280;19522;45.656;11.302;2023-02-18T01:44:33;99528.81;;;7.18;82.00
33161;BME280;19522;45.656;11.302;2023-02-18T01:46:59;99538.47;;;7.11;82.00
33161;BME280;19522;45.656;11.302;2023-02-18T01:49:32;99517.72;;;7.01;82.17
33161;BME280;19522;45.656;11.302;2023-02-18T01:52:02;99516.16;;;7.09;82.22
33161;BME280;19522;45.656;11.302;2023-02-18T01:54:33;99525.56;;;7.34;81.88
33161;BME280;19522;45.656;11.302;2023-02-18T01:57:06;99522.00;;;7.63;80.33
33161;BME280;19522;45.656;11.302;2023-02-18T02:02:16;99500.94;;;7.17;81.09
33161;BME280;19522;45.656;11.302;2023-02-18T02:04:42;99521.56;;;7.18;82.47
33161;BME280;19522;45.656;11.302;2023-02-18T02:07:09;99522.13;;;7.12;83.06
33161;BME280;19522;45.656;11.302;2023-02-18T02:09:35;99527.63;;;7.01;83.59
33161;BME280;19522;45.656;11.302;2023-02-18T02:12:22;99517.66;;;6.92;84.22
33161;BME280;19522;45.656;11.302;2023-02-18T02:15:10;99489.53;;;6.84;84.15
33161;BME280;19522;45.656;11.302;2023-02-18T02:25:44;99508.34;;;7.15;83.66
33161;BME280;19522;45.656;11.302;2023-02-18T02:29:24;99508.47;;;7.14;83.58
33161;BME280;19522;45.656;11.302;2023-02-18T02:35:28;99508.50;;;7.24;83.20
33161;BME280;19522;45.656;11.302;2023-02-18T02:37:58;99491.97;;;7.07;83.52
33161;BME280;19522;45.656;11.302;2023-02-18T02:43:27;99501.38;;;7.23;83.47
33161;BME280;19522;45.656;11.302;2023-02-18T02:46:05;99498.34;;;6.86;85.15
33161;BME280;19522;45.656;11.302;2023-02-18T02:52:00;99488.66;;;6.84;86.34
33161;BME280;19522;45.656;11.302;2023-02-18T02:54:27;99488.53;;;6.85;86.30
33161;BME280;19522;45.656;11.302;2023-02-18T02:59:40;99473.34;;;7.33;83.50
33161;BME280;19522;45.656;11.302;2023-02-18T03:02:30;99475.75;;;7.07;84.93
33161;BME280;19522;45.656;11.302;2023-02-18T03:16:35;99466.25;;;7.03;85.86
33161;BME280;19522;45.656;11.302;2023-02-18T03:21:43;99431.13;;;7.03;85.02
33161;BME280;19522;45.656;11.302;2023-02-18T03:24:17;99463.50;;;6.93;86.08
33161;BME280;19522;45.656;11.302;2023-02-18T03:27:02;99466.94;;;7.15;85.53
33161;BME280;19522;45.656;11.302;2023-02-18T03:29:30;99475.31;;;7.12;85.73
33161;BME280;19522;45.656;11.302;2023-02-18T03:31:59;99471.06;;;7.29;84.90
33161;BME280;19522;45.656;11.302;2023-02-18T03:34:33;99466.13;;;7.34;84.96
33161;BME280;19522;45.656;11.302;2023-02-18T03:37:01;99470.09;;;7.30;84.95
33161;BME280;19522;45.656;11.302;2023-02-18T03:39:29;99438.81;;;7.08;84.71
33161;BME280;19522;45.656;11.302;2023-02-18T03:41:55;99466.94;;;7.35;84.50
33161;BME280;19522;45.656;11.302;2023-02-18T03:44:23;99466.13;;;7.34;84.83
33161;BME280;19522;45.656;11.302;2023-02-18T03:46:49;99461.28;;;7.38;84.59
33161;BME280;19522;45.656;11.302;2023-02-18T03:49:15;99466.22;;;7.13;85.24
33161;BME280;19522;45.656;11.302;2023-02-18T03:51:41;99465.66;;;7.09;86.39
33161;BME280;19522;45.656;11.302;2023-02-18T03:54:07;99447.47;;;7.01;85.79
33161;BME280;19522;45.656;11.302;2023-02-18T03:56:34;99466.09;;;7.24;84.97
33161;BME280;19522;45.656;11.302;2023-02-18T03:59:00;99474.63;;;7.39;84.25
33161;BME280;19522;45.656;11.302;2023-02-18T04:01:26;99454.03;;;7.28;84.30
33161;BME280;19522;45.656;11.302;2023-02-18T04:03:51;99460.28;;;7.39;83.90
33161;BME280;19522;45.656;11.302;2023-02-18T04:06:20;99466.53;;;7.29;84.37
33161;BME280;19522;45.656;11.302;2023-02-18T04:08:46;99463.53;;;7.42;84.21
33161;BME280;19522;45.656;11.302;2023-02-18T04:11:11;99457.97;;;7.73;82.81
33161;BME280;19522;45.656;11.302;2023-02-18T04:13:37;99456.22;;;7.82;81.99
33161;BME280;19522;45.656;11.302;2023-02-18T04:16:02;99446.59;;;7.60;82.29
33161;BME280;19522;45.656;11.302;2023-02-18T04:18:28;99454.00;;;7.48;83.39
33161;BME280;19522;45.656;11.302;2023-02-18T04:20:54;99439.91;;;7.54;83.14
33161;BME280;19522;45.656;11.302;2023-02-18T04:23:19;99445.88;;;7.58;82.97
33161;BME280;19522;45.656;11.302;2023-02-18T04:25:45;99450.56;;;7.66;82.82
33161;BME280;19522;45.656;11.302;2023-02-18T04:28:12;99447.31;;;7.42;83.97
33161;BME280;19522;45.656;11.302;2023-02-18T04:30:38;99446.75;;;6.99;85.56
33161;BME280;19522;45.656;11.302;2023-02-18T04:33:03;99468.22;;;7.01;87.11
33161;BME280;19522;45.656;11.302;2023-02-18T04:35:29;99466.50;;;7.00;87.20
33161;BME280;19522;45.656;11.302;2023-02-18T04:37:54;99472.91;;;6.99;87.70
33161;BME280;19522;45.656;11.302;2023-02-18T04:40:20;99446.75;;;6.90;87.67
33161;BME280;19522;45.656;11.302;2023-02-18T04:42:45;99465.81;;;7.37;86.41
33161;BME280;19522;45.656;11.302;2023-02-18T04:45:11;99463.69;;;7.51;85.00
33161;BME280;19522;45.656;11.302;2023-02-18T04:47:36;99444.28;;;7.65;83.24
33161;BME280;19522;45.656;11.302;2023-02-18T04:50:02;99416.16;;;7.48;82.71
33161;BME280;19522;45.656;11.302;2023-02-18T04:52:28;99460.13;;;7.40;84.30
33161;BME280;19522;45.656;11.302;2023-02-18T04:54:53;99469.94;;;7.31;85.51
33161;BME280;19522;45.656;11.302;2023-02-18T04:57:19;99467.22;;;7.12;86.78
33161;BME280;19522;45.656;11.302;2023-02-18T04:59:44;99467.66;;;7.27;86.72
33161;BME280;19522;45.656;11.302;2023-02-18T05:02:10;99454.53;;;7.61;84.35
33161;BME280;19522;45.656;11.302;2023-02-18T05:04:35;99425.56;;;7.54;82.47
33161;BME280;19522;45.656;11.302;2023-02-18T05:07:01;99451.84;;;7.71;81.46
33161;BME280;19522;45.656;11.302;2023-02-18T05:09:26;99394.56;;;7.28;81.62
33161;BME280;19522;45.656;11.302;2023-02-18T05:11:52;99448.03;;;7.44;82.21
33161;BME280;19522;45.656;11.302;2023-02-18T05:14:18;99452.44;;;7.36;84.39
33161;BME280;19522;45.656;11.302;2023-02-18T05:16:43;99452.59;;;7.34;83.28
33161;BME280;19522;45.656;11.302;2023-02-18T05:19:13;99453.59;;;7.23;84.35
33161;BME280;19522;45.656;11.302;2023-02-18T05:21:38;99447.63;;;7.29;84.01
33161;BME280;19522;45.656;11.302;2023-02-18T05:24:04;99452.44;;;7.16;84.76
33161;BME280;19522;45.656;11.302;2023-02-18T05:26:30;99460.84;;;7.03;86.14
33161;BME280;19522;45.656;11.302;2023-02-18T05:28:55;99454.56;;;6.93;86.77
33161;BME280;19522;45.656;11.302;2023-02-18T05:31:21;99461.94;;;6.91;87.44
33161;BME280;19522;45.656;11.302;2023-02-18T05:33:47;99466.22;;;6.83;88.45
33161;BME280;19522;45.656;11.302;2023-02-18T05:36:12;99443.16;;;6.79;88.54
33161;BME280;19522;45.656;11.302;2023-02-18T05:38:38;99469.03;;;6.62;90.70
33161;BME280;19522;45.656;11.302;2023-02-18T05:41:03;99470.75;;;6.32;92.65
33161;BME280;19522;45.656;11.302;2023-02-18T05:43:29;99433.19;;;5.88;94.50
33161;BME280;19522;45.656;11.302;2023-02-18T05:45:55;99477.81;;;6.23;94.23
33161;BME280;19522;45.656;11.302;2023-02-18T05:48:20;99432.34;;;5.88;94.84
33161;BME280;19522;45.656;11.302;2023-02-18T05:50:46;99469.00;;;6.21;95.52
33161;BME280;19522;45.656;11.302;2023-02-18T05:53:11;99470.03;;;6.30;94.91
33161;BME280;19522;45.656;11.302;2023-02-18T05:55:37;99472.59;;;6.32;95.29
33161;BME280;19522;45.656;11.302;2023-02-18T05:58:04;99474.75;;;6.38;94.91
33161;BME280;19522;45.656;11.302;2023-02-18T06:00:30;99481.53;;;6.63;93.55
33161;BME280;19522;45.656;11.302;2023-02-18T06:02:57;99470.72;;;6.63;92.63
33161;BME280;19522;45.656;11.302;2023-02-18T06:05:23;99467.16;;;6.63;92.15
33161;BME280;19522;45.656;11.302;2023-02-18T06:07:48;99500.84;;;6.68;92.52
33161;BME280;19522;45.656;11.302;2023-02-18T06:10:14;99429.06;;;6.05;94.14
33161;BME280;19522;45.656;11.302;2023-02-18T06:12:39;99494.97;;;6.22;96.31
33161;BME280;19522;45.656;11.302;2023-02-18T06:15:05;99483.97;;;5.83;99.39
33161;BME280;19522;45.656;11.302;2023-02-18T06:17:31;99478.16;;;5.88;100.00
33161;BME280;19522;45.656;11.302;2023-02-18T06:19:57;99488.91;;;5.99;100.00
33161;BME280;19522;45.656;11.302;2023-02-18T06:22:22;99502.00;;;6.04;100.00
33161;BME280;19522;45.656;11.302;2023-02-18T06:24:48;99508.03;;;6.17;100.00
33161;BME280;19522;45.656;11.302;2023-02-18T06:27:15;99504.22;;;6.20;100.00
33161;BME280;19522;45.656;11.302;2023-02-18T06:29:40;99498.81;;;6.51;100.00
33161;BME280;19522;45.656;11.302;2023-02-18T06:32:06;99476.00;;;6.24;100.00
33161;BME280;19522;45.656;11.302;2023-02-18T06:34:31;99507.66;;;6.01;100.00
33161;BME280;19522;45.656;11.302;2023-02-18T06:36:57;99501.63;;;5.97;100.00
33161;BME280;19522;45.656;11.302;2023-02-18T06:39:22;99504.44;;;6.38;100.00
33161;BME280;19522;45.656;11.302;2023-02-18T06:41:48;99511.97;;;6.34;100.00
33161;BME280;19522;45.656;11.302;2023-02-18T06:44:13;99511.44;;;6.50;100.00
33161;BME280;19522;45.656;11.302;2023-02-18T06:46:43;99504.97;;;6.32;100.00
33161;BME280;19522;45.656;11.302;2023-02-18T06:49:08;99497.25;;;6.17;100.00
33161;BME280;19522;45.656;11.302;2023-02-18T06:51:34;99492.50;;;6.10;100.00
33161;BME280;19522;45.656;11.302;2023-02-18T06:53:59;99460.69;;;6.03;100.00
33161;BME280;19522;45.656;11.302;2023-02-18T06:56:25;99494.41;;;5.98;100.00
33161;BME280;19522;45.656;11.302;2023-02-18T06:58:51;99505.00;;;6.11;100.00
33161;BME280;19522;45.656;11.302;2023-02-18T07:01:16;99504.47;;;5.96;100.00
33161;BME280;19522;45.656;11.302;2023-02-18T07:03:42;99514.50;;;6.05;100.00
33161;BME280;19522;45.656;11.302;2023-02-18T07:06:07;99509.28;;;6.13;100.00
33161;BME280;19522;45.656;11.302;2023-02-18T07:08:33;99511.47;;;6.19;100.00
33161;BME280;19522;45.656;11.302;2023-02-18T07:11:00;99516.75;;;6.31;100.00
33161;BME280;19522;45.656;11.302;2023-02-18T07:13:26;99505.44;;;6.16;100.00
33161;BME280;19522;45.656;11.302;2023-02-18T07:15:51;99501.41;;;6.00;100.00
33161;BME280;19522;45.656;11.302;2023-02-18T07:18:17;99504.22;;;5.99;100.00
33161;BME280;19522;45.656;11.302;2023-02-18T07:20:42;99515.19;;;6.28;100.00
33161;BME280;19522;45.656;11.302;2023-02-18T07:23:08;99501.34;;;6.52;100.00
33161;BME280;19522;45.656;11.302;2023-02-18T07:25:35;99518.69;;;6.50;100.00
33161;BME280;19522;45.656;11.302;2023-02-18T07:28:01;99523.03;;;6.41;100.00
33161;BME280;19522;45.656;11.302;2023-02-18T07:30:26;99496.53;;;5.94;100.00
33161;BME280;19522;45.656;11.302;2023-02-18T07:32:52;99526.50;;;6.22;100.00
33161;BME280;19522;45.656;11.302;2023-02-18T07:35:17;99495.66;;;5.93;100.00
33161;BME280;19522;45.656;11.302;2023-02-18T07:37:45;99523.88;;;6.11;100.00
33161;BME280;19522;45.656;11.302;2023-02-18T07:40:13;99500.53;;;6.21;100.00
33161;BME280;19522;45.656;11.302;2023-02-18T07:42:39;99519.19;;;6.34;100.00
33161;BME280;19522;45.656;11.302;2023-02-18T07:45:05;99519.94;;;6.46;100.00
33161;BME280;19522;45.656;11.302;2023-02-18T07:47:30;99513.34;;;6.29;100.00
33161;BME280;19522;45.656;11.302;2023-02-18T07:49:56;99517.63;;;6.31;100.00
33161;BME280;19522;45.656;11.302;2023-02-18T07:52:21;99534.53;;;6.33;100.00
33161;BME280;19522;45.656;11.302;2023-02-18T07:54:47;99523.41;;;6.27;100.00
33161;BME280;19522;45.656;11.302;2023-02-18T07:57:12;99530.63;;;6.26;100.00
33161;BME280;19522;45.656;11.302;2023-02-18T07:59:38;99538.31;;;6.31;100.00
33161;BME280;19522;45.656;11.302;2023-02-18T08:02:04;99526.25;;;6.25;100.00
33161;BME280;19522;45.656;11.302;2023-02-18T08:04:32;99531.16;;;6.10;100.00
33161;BME280;19522;45.656;11.302;2023-02-18T08:06:57;99531.66;;;6.04;100.00
33161;BME280;19522;45.656;11.302;2023-02-18T08:09:23;99514.28;;;5.97;100.00
33161;BME280;19522;45.656;11.302;2023-02-18T08:11:48;99539.81;;;6.14;100.00
33161;BME280;19522;45.656;11.302;2023-02-18T08:14:14;99537.72;;;6.48;100.00
33161;BME280;19522;45.656;11.302;2023-02-18T08:16:40;99533.34;;;6.57;100.00
33161;BME280;19522;45.656;11.302;2023-02-18T08:19:05;99530.53;;;6.28;100.00
33161;BME280;19522;45.656;11.302;2023-02-18T08:21:32;99526.88;;;6.38;100.00
33161;BME280;19522;45.656;11.302;2023-02-18T08:23:58;99497.25;;;6.17;100.00
33161;BME280;19522;45.656;11.302;2023-02-18T08:26:24;99534.59;;;6.22;100.00
33161;BME280;19522;45.656;11.302;2023-02-18T08:28:49;99532.00;;;6.42;100.00
33161;BME280;19522;45.656;11.302;2023-02-18T08:31:24;99528.50;;;6.51;100.00
33161;BME280;19522;45.656;11.302;2023-02-18T08:33:51;99472.38;;;6.14;100.00
33161;BME280;19522;45.656;11.302;2023-02-18T08:36:17;99526.03;;;6.38;100.00
33161;BME280;19522;45.656;11.302;2023-02-18T08:38:43;99528.09;;;6.24;100.00
33161;BME280;19522;45.656;11.302;2023-02-18T08:41:09;99530.53;;;6.28;100.00
33161;BME280;19522;45.656;11.302;2023-02-18T08:43:35;99529.16;;;6.43;100.00
33161;BME280;19522;45.656;11.302;2023-02-18T08:46:01;99533.56;;;6.44;100.00
33161;BME280;19522;45.656;11.302;2023-02-18T08:48:28;99540.13;;;6.20;100.00
33161;BME280;19522;45.656;11.302;2023-02-18T08:50:53;99521.06;;;6.12;100.00
33161;BME280;19522;45.656;11.302;2023-02-18T08:53:19;99529.13;;;6.33;100.00
33161;BME280;19522;45.656;11.302;2023-02-18T08:55:45;99518.19;;;6.35;100.00
33161;BME280;19522;45.656;11.302;2023-02-18T08:58:11;99451.50;;;5.85;100.00
33161;BME280;19522;45.656;11.302;2023-02-18T09:00:37;99513.97;;;6.42;100.00
33161;BME280;19522;45.656;11.302;2023-02-18T09:03:04;99510.66;;;6.29;100.00
33161;BME280;19522;45.656;11.302;2023-02-18T09:05:30;99494.16;;;6.22;100.00
33161;BME280;19522;45.656;11.302;2023-02-18T09:07:56;99499.63;;;6.42;100.00
33161;BME280;19522;45.656;11.302;2023-02-18T09:10:22;99507.31;;;6.46;100.00
33161;BME280;19522;45.656;11.302;2023-02-18T09:12:50;99528.09;;;6.65;100.00
33161;BME280;19522;45.656;11.302;2023-02-18T09:15:16;99519.81;;;6.47;100.00
33161;BME280;19522;45.656;11.302;2023-02-18T09:17:42;99524.41;;;6.57;100.00
33161;BME280;19522;45.656;11.302;2023-02-18T09:20:07;99519.81;;;6.47;100.00
33161;BME280;19522;45.656;11.302;2023-02-18T09:22:33;99522.75;;;6.13;100.00
33161;BME280;19522;45.656;11.302;2023-02-18T09:24:59;99510.84;;;6.16;100.00
33161;BME280;19522;45.656;11.302;2023-02-18T09:27:24;99522.13;;;6.31;100.00
33161;BME280;19522;45.656;11.302;2023-02-18T09:29:50;99509.25;;;6.34;100.00
33161;BME280;19522;45.656;11.302;2023-02-18T09:32:17;99517.94;;;6.38;100.00
33161;BME280;19522;45.656;11.302;2023-02-18T09:34:44;99422.25;;;5.80;100.00
33161;BME280;19522;45.656;11.302;2023-02-18T09:37:10;99525.75;;;6.41;100.00
33161;BME280;19522;45.656;11.302;2023-02-18T09:39:36;99511.00;;;6.45;100.00
33161;BME280;19522;45.656;11.302;2023-02-18T09:42:04;99513.91;;;6.63;100.00
33161;BME280;19522;45.656;11.302;2023-02-18T09:44:41;99511.06;;;6.65;100.00
33161;BME280;19522;45.656;11.302;2023-02-18T09:47:58;99513.09;;;6.82;100.00
33161;BME280;19522;45.656;11.302;2023-02-18T09:50:26;99505.28;;;6.79;100.00
33161;BME280;19522;45.656;11.302;2023-02-18T09:52:53;99475.03;;;6.45;100.00
33161;BME280;19522;45.656;11.302;2023-02-18T09:55:26;99491.78;;;6.38;100.00
33161;BME280;19522;45.656;11.302;2023-02-18T09:57:56;99507.22;;;6.58;100.00
33161;BME280;19522;45.656;11.302;2023-02-18T10:00:38;99513.31;;;6.60;100.00
33161;BME280;19522;45.656;11.302;2023-02-18T10:03:11;99496.06;;;6.41;100.00
33161;BME280;19522;45.656;11.302;2023-02-18T10:05:51;99500.84;;;6.59;100.00
33161;BME280;19522;45.656;11.302;2023-02-18T10:08:45;99518.63;;;6.40;100.00
33161;BME280;19522;45.656;11.302;2023-02-18T10:11:16;99508.03;;;6.48;100.00
33161;BME280;19522;45.656;11.302;2023-02-18T10:13:43;99508.72;;;6.50;100.00
33161;BME280;19522;45.656;11.302;2023-02-18T10:16:16;99512.31;;;6.51;100.00
33161;BME280;19522;45.656;11.302;2023-02-18T10:18:45;99499.94;;;6.48;100.00
33161;BME280;19522;45.656;11.302;2023-02-18T10:21:46;99515.16;;;6.59;100.00
33161;BME280;19522;45.656;11.302;2023-02-18T10:24:31;99514.97;;;6.92;100.00
33161;BME280;19522;45.656;11.302;2023-02-18T10:26:58;99474.41;;;6.62;100.00
33161;BME280;19522;45.656;11.302;2023-02-18T10:29:25;99504.94;;;6.63;100.00
33161;BME280;19522;45.656;11.302;2023-02-18T10:48:09;99499.75;;;6.91;100.00
33161;BME280;19522;45.656;11.302;2023-02-18T10:50:43;99503.94;;;7.14;99.68
33161;BME280;19522;45.656;11.302;2023-02-18T10:55:43;99492.94;;;6.96;100.00
33161;BME280;19522;45.656;11.302;2023-02-18T10:58:42;99489.09;;;6.99;100.00
33161;BME280;19522;45.656;11.302;2023-02-18T11:01:19;99474.19;;;7.05;100.00
33161;BME280;19522;45.656;11.302;2023-02-18T11:03:51;99462.84;;;7.11;99.06
33161;BME280;19522;45.656;11.302;2023-02-18T11:06:20;99466.22;;;7.13;99.48
33161;BME280;19522;45.656;11.302;2023-02-18T11:08:48;99461.44;;;7.16;98.80
33161;BME280;19522;45.656;11.302;2023-02-18T11:11:22;99448.34;;;7.22;97.64
33161;BME280;19522;45.656;11.302;2023-02-18T11:13:58;99462.41;;;7.35;97.33
33161;BME280;19522;45.656;11.302;2023-02-18T11:19:02;99440.38;;;7.40;95.80
33161;BME280;19522;45.656;11.302;2023-02-18T11:21:35;99448.19;;;7.53;95.93
33161;BME280;19522;45.656;11.302;2023-02-18T11:24:15;99447.19;;;7.54;95.05
33161;BME280;19522;45.656;11.302;2023-02-18T11:26:42;99448.31;;;7.31;94.54
33161;BME280;19522;45.656;11.302;2023-02-18T11:29:22;99448.63;;;7.09;95.82
33161;BME280;19522;45.656;11.302;2023-02-18T11:31:52;99441.50;;;7.17;96.87
33161;BME280;19522;45.656;11.302;2023-02-18T11:34:21;99428.44;;;7.23;96.30
33161;BME280;19522;45.656;11.302;2023-02-18T11:36:48;99439.78;;;7.36;95.41
33161;BME280;19522;45.656;11.302;2023-02-18T11:39:26;99431.53;;;7.28;96.25
33161;BME280;19522;45.656;11.302;2023-02-18T11:42:17;99432.41;;;7.28;96.56
33161;BME280;19522;45.656;11.302;2023-02-18T11:44:58;99435.53;;;7.24;96.53
33161;BME280;19522;45.656;11.302;2023-02-18T11:47:32;99428.41;;;7.42;95.98
33161;BME280;19522;45.656;11.302;2023-02-18T11:52:39;99428.53;;;7.41;94.57
33161;BME280;19522;45.656;11.302;2023-02-18T11:55:18;99358.75;;;7.07;94.73
33161;BME280;19522;45.656;11.302;2023-02-18T12:00:41;99419.03;;;7.37;94.61
33161;BME280;19522;45.656;11.302;2023-02-18T12:03:26;99413.31;;;7.49;94.01
33161;BME280;19522;45.656;11.302;2023-02-18T12:05:56;99406.91;;;7.41;94.46
33161;BME280;19522;45.656;11.302;2023-02-18T12:08:44;99338.72;;;7.09;95.31
33161;BME280;19522;45.656;11.302;2023-02-18T12:11:26;99391.41;;;7.53;95.12
33161;BME280;19522;45.656;11.302;2023-02-18T12:13:56;99375.59;;;7.58;94.23
33161;BME280;19522;45.656;11.302;2023-02-18T12:29:15;99368.31;;;8.06;90.65
33161;BME280;19522;45.656;11.302;2023-02-18T12:32:40;99362.16;;;7.76;91.00
33161;BME280;19522;45.656;11.302;2023-02-18T12:35:06;99371.28;;;7.65;92.20
33161;BME280;19522;45.656;11.302;2023-02-18T12:40:35;99362.22;;;7.56;92.36
33161;BME280;19522;45.656;11.302;2023-02-18T13:10:03;99327.75;;;8.24;87.53
33161;BME280;19522;45.656;11.302;2023-02-18T13:15:24;99249.31;;;7.78;87.03
33161;BME280;19522;45.656;11.302;2023-02-18T13:17:57;99292.03;;;8.02;87.56
33161;BME280;19522;45.656;11.302;2023-02-18T13:23:17;99288.28;;;7.75;89.36
33161;BME280;19522;45.656;11.302;2023-02-18T13:25:43;99298.88;;;7.97;89.40
33161;BME280;19522;45.656;11.302;2023-02-18T13:28:28;99266.91;;;7.82;88.27
33161;BME280;19522;45.656;11.302;2023-02-18T13:33:57;99285.53;;;8.13;87.55
33161;BME280;19522;45.656;11.302;2023-02-18T13:39:28;99262.38;;;7.83;88.60
33161;BME280;19522;45.656;11.302;2023-02-18T13:47:39;99286.91;;;7.71;90.59
33161;BME280;19522;45.656;11.302;2023-02-18T13:50:30;99281.31;;;8.01;89.10
33161;BME280;19522;45.656;11.302;2023-02-18T13:53:13;99281.66;;;7.98;88.91
33161;BME280;19522;45.656;11.302;2023-02-18T13:58:36;99263.00;;;7.94;89.09
33161;BME280;19522;45.656;11.302;2023-02-18T14:01:14;99272.84;;;8.14;87.68
33161;BME280;19522;45.656;11.302;2023-02-18T14:06:28;99272.72;;;8.15;87.45
33161;BME280;19522;45.656;11.302;2023-02-18T14:12:27;99271.72;;;8.16;86.64
33161;BME280;19522;45.656;11.302;2023-02-18T14:19:55;99234.16;;;8.67;83.93
33161;BME280;19522;45.656;11.302;2023-02-18T14:25:03;99248.38;;;8.69;83.56
33161;BME280;19522;45.656;11.302;2023-02-18T14:27:40;99248.94;;;8.55;84.48
33161;BME280;19522;45.656;11.302;2023-02-18T14:30:18;99246.09;;;8.83;83.48
33161;BME280;19522;45.656;11.302;2023-02-18T14:32:50;99240.31;;;8.78;83.62
33161;BME280;19522;45.656;11.302;2023-02-18T14:35:39;99240.63;;;8.75;83.19
33161;BME280;19522;45.656;11.302;2023-02-18T14:41:11;99243.75;;;8.62;83.55
33161;BME280;19522;45.656;11.302;2023-02-18T14:49:12;99236.75;;;8.41;85.85
33161;BME280;19522;45.656;11.302;2023-02-18T14:51:41;99226.03;;;8.31;86.13
33161;BME280;19522;45.656;11.302;2023-02-18T14:54:16;99238.00;;;8.47;86.89
33161;BME280;19522;45.656;11.302;2023-02-18T14:59:40;99223.19;;;8.51;85.71
33161;BME280;19522;45.656;11.302;2023-02-18T15:02:23;99221.38;;;8.60;85.12
33161;BME280;19522;45.656;11.302;2023-02-18T15:05:13;99229.97;;;8.55;84.77
33161;BME280;19522;45.656;11.302;2023-02-18T15:07:39;99211.03;;;8.55;84.74
33161;BME280;19522;45.656;11.302;2023-02-18T15:10:12;99217.91;;;8.67;84.98
33161;BME280;19522;45.656;11.302;2023-02-18T15:12:37;99206.31;;;8.57;84.47
33161;BME280;19522;45.656;11.302;2023-02-18T15:15:04;99222.84;;;8.72;84.70
33161;BME280;19522;45.656;11.302;2023-02-18T15:17:30;99220.91;;;8.64;84.65
33161;BME280;19522;45.656;11.302;2023-02-18T15:19:58;99221.91;;;8.63;84.86
33161;BME280;19522;45.656;11.302;2023-02-18T15:22:26;99225.09;;;8.58;85.15
33161;BME280;19522;45.656;11.302;2023-02-18T15:24:55;99226.63;;;8.61;84.94
33161;BME280;19522;45.656;11.302;2023-02-18T15:27:29;99188.13;;;8.49;84.83
33161;BME280;19522;45.656;11.302;2023-02-18T15:30:02;99224.53;;;8.73;84.30
33161;BME280;19522;45.656;11.302;2023-02-18T15:32:30;99196.84;;;8.61;84.00
33161;BME280;19522;45.656;11.302;2023-02-18T15:34:59;99206.38;;;8.65;84.07
33161;BME280;19522;45.656;11.302;2023-02-18T15:37:28;99192.59;;;8.58;83.84
33161;BME280;19522;45.656;11.302;2023-02-18T15:39:54;99172.75;;;8.50;83.57
33161;BME280;19522;45.656;11.302;2023-02-18T15:42:32;99205.13;;;8.78;83.50